Terminal Aerodrome Forecast
Issued by NWS Quad Cities IA IL

Home | Current Version | Previous Version | Text Only | Print | Product List | Glossary On
Versions: 1 2 3 4 5 6 7 8 9 10 11 12 13 14 15 16 17 18 19
945
FTUS43 KDVN 241358 AAA
TAFDBQ
TAF AMD
KDBQ 241358Z 2414/2512 20012KT P6SM BKN090
     FM242300 25007KT P6SM VCSH BKN035
     FM250100 02008KT 4SM -SHRA BR OVC020=

USA.gov is the U.S. government's official web portal to all federal, state and local government web resources and services.